Time;durP1;ratioP1;P1;durP2;ratioP2;P2;SDS_P1;SDS_P2;PMS_P1;PMS_P2;Temp;Humidity;BMP_temperature;BMP_pressure;BME280_temperature;BME280_humidity;BME280_pressure;Samples;Min_cycle;Max_cycle;Signal;HPM_P1;HPM_P2
2023/07/29 00:01:41;;;;;;;19.38;14.63;;;17.40;99.90;;;;;;7377389;19;20042;-58
2023/07/29 00:04:09;;;;;;;16.17;13.35;;;17.40;99.90;;;;;;7374617;19;20023;-58
2023/07/29 00:06:35;;;;;;;16.58;14.18;;;17.30;99.90;;;;;;7375884;19;20042;-57
2023/07/29 00:09:02;;;;;;;21.73;15.52;;;17.30;99.90;;;;;;7376768;19;20022;-57
2023/07/29 00:11:28;;;;;;;18.33;15.02;;;17.30;99.90;;;;;;7375246;19;20340;-58
2023/07/29 00:13:57;;;;;;;15.38;13.77;;;17.30;99.90;;;;;;7379697;19;20018;-56
2023/07/29 00:16:23;;;;;;;16.60;14.45;;;17.30;99.90;;;;;;7373435;19;20480;-57
2023/07/29 00:18:49;;;;;;;14.52;13.02;;;17.20;99.90;;;;;;7376527;19;20388;-57
2023/07/29 00:21:16;;;;;;;17.10;15.02;;;17.20;99.90;;;;;;7375817;19;20344;-56
2023/07/29 00:23:42;;;;;;;17.75;15.27;;;17.20;99.90;;;;;;7374805;19;20015;-57
2023/07/29 00:26:08;;;;;;;18.92;15.02;;;17.20;99.90;;;;;;7373099;19;20106;-57
2023/07/29 00:28:34;;;;;;;17.05;14.65;;;17.20;99.90;;;;;;7370472;19;20019;-63
2023/07/29 00:31:02;;;;;;;16.38;14.63;;;17.10;99.90;;;;;;7378233;19;20025;-62
2023/07/29 00:33:28;;;;;;;15.63;13.88;;;17.10;99.90;;;;;;7375751;19;20086;-64
2023/07/29 00:35:54;;;;;;;17.83;15.95;;;17.10;99.90;;;;;;7376422;19;20387;-64
2023/07/29 00:38:20;;;;;;;15.48;12.82;;;17.10;99.90;;;;;;7375538;19;20526;-64
2023/07/29 00:40:47;;;;;;;18.50;15.68;;;17.10;99.90;;;;;;7375601;19;20743;-57
2023/07/29 00:43:15;;;;;;;17.05;15.25;;;17.10;99.90;;;;;;7373698;19;20018;-58
2023/07/29 00:45:43;;;;;;;17.75;15.05;;;17.00;99.90;;;;;;7374715;19;20018;-58
2023/07/29 00:48:11;;;;;;;16.50;14.68;;;17.00;99.90;;;;;;7375467;19;20482;-64
2023/07/29 00:50:37;;;;;;;17.98;15.15;;;17.00;99.90;;;;;;7377042;19;20022;-65
2023/07/29 00:53:03;;;;;;;17.02;15.05;;;17.00;99.90;;;;;;7377252;19;20015;-64
2023/07/29 00:55:30;;;;;;;16.20;14.07;;;17.00;99.90;;;;;;7376191;19;20028;-64
2023/07/29 00:57:57;;;;;;;19.50;14.45;;;16.90;99.90;;;;;;7373689;19;20370;-64
2023/07/29 01:00:24;;;;;;;16.42;14.27;;;16.90;99.90;;;;;;7376704;19;20539;-64
2023/07/29 01:02:52;;;;;;;16.13;14.05;;;16.90;99.90;;;;;;7377498;19;20025;-64
2023/07/29 01:05:19;;;;;;;16.58;14.23;;;16.90;99.90;;;;;;7377379;19;20022;-64
2023/07/29 01:07:56;;;;;;;17.90;14.38;;;16.90;99.90;;;;;;7376005;19;20026;-64
2023/07/29 01:11:01;;;;;;;16.45;13.55;;;16.90;99.90;;;;;;7374591;19;20497;-64
2023/07/29 01:13:49;;;;;;;17.10;14.25;;;16.80;99.90;;;;;;7370375;19;20814;-64
2023/07/29 01:16:30;;;;;;;17.10;14.35;;;16.80;99.90;;;;;;7368457;19;20023;-63
2023/07/29 01:19:00;;;;;;;16.15;14.05;;;16.80;99.90;;;;;;7371442;19;20019;-64
2023/07/29 01:21:27;;;;;;;16.13;14.43;;;16.80;99.90;;;;;;7366169;19;20086;-58
2023/07/29 01:23:59;;;;;;;16.23;14.20;;;16.70;99.90;;;;;;7372993;19;20010;-58
2023/07/29 01:26:25;;;;;;;21.27;14.57;;;16.70;99.90;;;;;;7372095;19;20045;-58
2023/07/29 01:28:52;;;;;;;19.42;15.48;;;16.70;99.90;;;;;;7374151;19;20029;-57
2023/07/29 01:31:45;;;;;;;17.50;14.10;;;16.70;99.90;;;;;;7365376;19;20070;-57
2023/07/29 01:34:35;;;;;;;16.15;13.60;;;16.70;99.90;;;;;;7371473;19;20030;-58
2023/07/29 01:37:05;;;;;;;16.27;14.57;;;16.70;99.90;;;;;;7370269;19;20082;-64
2023/07/29 01:39:36;;;;;;;17.50;14.05;;;16.60;99.90;;;;;;7368745;19;20435;-64
2023/07/29 01:42:03;;;;;;;15.85;14.15;;;16.60;99.90;;;;;;7373027;19;20058;-64
2023/07/29 01:44:32;;;;;;;16.85;14.15;;;16.60;99.90;;;;;;7368796;19;20490;-57
2023/07/29 01:46:59;;;;;;;16.88;14.55;;;16.60;99.90;;;;;;7371643;19;20014;-65
2023/07/29 01:49:27;;;;;;;16.48;14.65;;;16.60;99.90;;;;;;7373296;19;20014;-63
2023/07/29 01:51:53;;;;;;;17.90;15.98;;;16.60;99.90;;;;;;7376478;19;20038;-63
2023/07/29 01:54:20;;;;;;;16.90;14.88;;;16.60;99.90;;;;;;7372172;19;20025;-63
2023/07/29 01:56:46;;;;;;;16.48;14.52;;;16.60;99.90;;;;;;7370983;19;20018;-63
2023/07/29 01:59:13;;;;;;;16.25;13.52;;;16.60;99.90;;;;;;7373032;19;20512;-63
2023/07/29 02:01:40;;;;;;;14.75;12.93;;;16.60;99.90;;;;;;7371279;19;20518;-56
2023/07/29 02:04:06;;;;;;;16.55;13.55;;;16.60;99.90;;;;;;7372735;19;20026;-56
2023/07/29 02:06:32;;;;;;;17.13;14.00;;;16.60;99.90;;;;;;7369405;19;20022;-63
2023/07/29 02:08:58;;;;;;;16.67;13.50;;;16.60;99.90;;;;;;7371473;19;20031;-63
2023/07/29 02:11:27;;;;;;;16.40;13.50;;;16.60;99.90;;;;;;7372187;19;20033;-57
2023/07/29 02:13:55;;;;;;;17.63;13.68;;;16.60;99.90;;;;;;7370777;19;20014;-57
2023/07/29 02:16:25;;;;;;;14.02;12.48;;;16.70;99.90;;;;;;7369275;19;20482;-57
2023/07/29 02:18:52;;;;;;;12.70;11.30;;;16.70;99.90;;;;;;7366667;19;20565;-57
2023/07/29 02:21:18;;;;;;;13.60;11.48;;;16.70;99.90;;;;;;7371433;19;20026;-62
2023/07/29 02:23:45;;;;;;;13.30;11.18;;;16.70;99.90;;;;;;7369074;19;21926;-64
2023/07/29 02:26:11;;;;;;;14.48;11.82;;;16.80;99.90;;;;;;7370943;19;20029;-57
2023/07/29 02:28:38;;;;;;;14.05;11.18;;;16.80;99.90;;;;;;7373486;19;20031;-57
2023/07/29 02:31:20;;;;;;;13.65;11.02;;;16.80;99.90;;;;;;7372926;19;20023;-64
2023/07/29 02:33:47;;;;;;;14.45;10.95;;;16.80;99.90;;;;;;7371678;19;20029;-65
2023/07/29 02:36:14;;;;;;;13.07;9.98;;;16.70;99.90;;;;;;7373061;19;20014;-65
2023/07/29 02:38:41;;;;;;;13.40;11.63;;;16.80;99.90;;;;;;7351994;19;20987;-64
2023/07/29 02:41:09;;;;;;;12.27;10.30;;;16.80;99.90;;;;;;7361354;19;20506;-58
2023/07/29 02:43:36;;;;;;;11.82;10.50;;;16.80;99.90;;;;;;7360556;19;20014;-57
2023/07/29 02:46:03;;;;;;;11.50;10.30;;;16.80;99.90;;;;;;7367277;19;20700;-64
2023/07/29 02:48:32;;;;;;;13.52;10.85;;;16.80;99.90;;;;;;7368063;19;20022;-65
2023/07/29 02:50:59;;;;;;;11.15;9.27;;;16.80;99.90;;;;;;7372179;19;20010;-64
2023/07/29 02:53:25;;;;;;;12.07;9.70;;;16.90;99.90;;;;;;7368015;19;20019;-64
2023/07/29 02:55:52;;;;;;;12.30;11.00;;;16.90;99.90;;;;;;7367840;19;20118;-64
2023/07/29 02:58:20;;;;;;;13.60;9.32;;;16.90;99.90;;;;;;7368232;19;20030;-64
2023/07/29 03:00:48;;;;;;;12.00;9.27;;;16.90;99.90;;;;;;7371091;19;20023;-64
2023/07/29 03:03:14;;;;;;;10.80;9.23;;;16.90;99.90;;;;;;7368883;19;21077;-58
2023/07/29 03:05:40;;;;;;;10.45;8.88;;;16.80;99.90;;;;;;7372501;19;20485;-57
2023/07/29 03:08:06;;;;;;;11.35;8.70;;;16.80;99.90;;;;;;7372825;19;20022;-65
2023/07/29 03:10:36;;;;;;;12.35;8.68;;;16.80;99.90;;;;;;7375569;19;21114;-63
2023/07/29 03:13:03;;;;;;;11.68;8.80;;;16.80;99.90;;;;;;7376733;19;20089;-62
2023/07/29 03:15:33;;;;;;;12.05;8.68;;;16.80;99.90;;;;;;7375964;19;20513;-63
2023/07/29 03:18:00;;;;;;;11.27;8.30;;;16.70;99.90;;;;;;7376867;19;20014;-57
2023/07/29 03:20:26;;;;;;;11.85;8.43;;;16.70;99.90;;;;;;7375184;19;20282;-64
2023/07/29 03:22:53;;;;;;;11.05;8.25;;;16.70;99.90;;;;;;7377774;19;20033;-64
2023/07/29 03:25:19;;;;;;;9.80;8.77;;;16.70;99.90;;;;;;7375957;19;20411;-64
2023/07/29 03:27:49;;;;;;;9.77;8.20;;;16.70;99.90;;;;;;7376654;19;20030;-64
2023/07/29 03:30:15;;;;;;;11.23;8.20;;;16.60;99.90;;;;;;7375070;19;20011;-58
2023/07/29 03:32:45;;;;;;;11.00;8.25;;;16.60;99.90;;;;;;7376128;19;20362;-57
2023/07/29 03:35:11;;;;;;;11.30;7.70;;;16.50;99.90;;;;;;7373033;19;20027;-57
2023/07/29 03:37:38;;;;;;;10.57;8.40;;;16.50;99.90;;;;;;7373039;19;20040;-57
2023/07/29 03:40:05;;;;;;;9.02;7.28;;;16.50;99.90;;;;;;7374166;19;20074;-58
2023/07/29 03:42:31;;;;;;;8.70;7.15;;;16.40;99.90;;;;;;7374744;19;20035;-57
2023/07/29 03:44:58;;;;;;;9.73;8.02;;;16.30;99.90;;;;;;7374620;19;20014;-57
2023/07/29 03:47:24;;;;;;;10.05;7.70;;;16.30;99.90;;;;;;7377703;19;20024;-57
2023/07/29 03:49:52;;;;;;;9.45;7.85;;;16.30;99.90;;;;;;7372411;19;20814;-57
2023/07/29 03:52:22;;;;;;;10.48;8.18;;;16.20;99.90;;;;;;7374418;19;20477;-57
2023/07/29 03:54:48;;;;;;;13.25;7.68;;;16.20;99.90;;;;;;7375397;19;20021;-64
2023/07/29 03:57:14;;;;;;;10.10;7.82;;;16.20;99.90;;;;;;7375114;19;20070;-64
2023/07/29 03:59:40;;;;;;;9.35;6.60;;;16.20;99.90;;;;;;7375838;19;20030;-64
2023/07/29 04:02:07;;;;;;;8.88;7.43;;;16.10;99.90;;;;;;7377995;19;20070;-57
2023/07/29 04:04:33;;;;;;;9.90;7.15;;;16.10;99.90;;;;;;7375572;19;20565;-61
2023/07/29 04:07:02;;;;;;;9.13;6.55;;;16.10;99.90;;;;;;7378088;19;20383;-57
2023/07/29 04:09:29;;;;;;;11.40;7.22;;;16.10;99.90;;;;;;7374967;19;20011;-57
2023/07/29 04:11:55;;;;;;;9.52;7.32;;;16.10;99.90;;;;;;7375708;19;20033;-63
2023/07/29 04:14:21;;;;;;;11.20;7.50;;;16.10;99.90;;;;;;7375282;19;20473;-64
2023/07/29 04:16:49;;;;;;;7.88;6.38;;;16.10;99.90;;;;;;7376244;19;20347;-64
2023/07/29 04:19:15;;;;;;;11.90;6.88;;;16.10;99.90;;;;;;7373248;19;20018;-57
2023/07/29 04:21:41;;;;;;;11.77;6.45;;;16.10;99.90;;;;;;7373259;19;20018;-56
2023/07/29 04:24:07;;;;;;;8.10;5.82;;;16.20;99.90;;;;;;7374502;19;20033;-56
2023/07/29 04:26:34;;;;;;;8.27;6.55;;;16.20;99.90;;;;;;7373698;19;20025;-58
2023/07/29 04:29:00;;;;;;;8.07;6.28;;;16.30;99.90;;;;;;7375186;19;20474;-63
2023/07/29 04:31:26;;;;;;;8.93;6.40;;;16.30;99.90;;;;;;7373881;19;20045;-64
2023/07/29 04:33:52;;;;;;;9.60;6.35;;;16.30;99.90;;;;;;7373854;19;20027;-64
2023/07/29 04:36:19;;;;;;;11.10;6.05;;;16.30;99.90;;;;;;7372987;19;20023;-63
2023/07/29 04:38:45;;;;;;;7.82;6.05;;;16.30;99.90;;;;;;7372598;19;20508;-57
2023/07/29 04:41:12;;;;;;;9.90;5.43;;;16.40;99.90;;;;;;7374334;19;20023;-56
2023/07/29 04:43:38;;;;;;;7.75;5.97;;;16.40;99.90;;;;;;7375040;19;20011;-64
2023/07/29 04:46:08;;;;;;;7.65;5.28;;;16.40;99.90;;;;;;7377040;19;20482;-57
2023/07/29 04:48:34;;;;;;;6.25;5.55;;;16.40;99.90;;;;;;7373916;19;20014;-57
2023/07/29 04:51:01;;;;;;;6.55;4.75;;;16.40;99.90;;;;;;7374210;19;20322;-58
2023/07/29 04:53:28;;;;;;;6.75;4.72;;;16.40;99.90;;;;;;7375706;19;20026;-57
2023/07/29 04:55:54;;;;;;;6.97;4.68;;;16.40;99.90;;;;;;7375138;19;20015;-63
2023/07/29 04:58:20;;;;;;;8.80;4.93;;;16.40;99.90;;;;;;7372528;19;20022;-57
2023/07/29 05:00:48;;;;;;;6.93;4.80;;;16.50;99.90;;;;;;7374892;19;20015;-58
2023/07/29 05:03:14;;;;;;;8.60;4.93;;;16.50;99.90;;;;;;7375816;19;20018;-63
2023/07/29 05:05:40;;;;;;;6.65;4.65;;;16.60;99.90;;;;;;7372563;19;20019;-59
2023/07/29 05:08:07;;;;;;;6.38;5.35;;;16.60;99.90;;;;;;7373386;19;20018;-58
2023/07/29 05:10:34;;;;;;;5.75;5.15;;;16.60;99.90;;;;;;7367897;19;20018;-65
2023/07/29 05:13:01;;;;;;;8.75;4.80;;;16.50;99.90;;;;;;7373251;19;20461;-58
2023/07/29 05:15:27;;;;;;;7.93;5.35;;;16.50;99.90;;;;;;7368781;19;20581;-65
2023/07/29 05:17:53;;;;;;;7.47;4.82;;;16.60;99.90;;;;;;7370553;19;20049;-65
2023/07/29 05:20:19;;;;;;;5.70;4.43;;;16.60;99.90;;;;;;7371892;19;20349;-59
2023/07/29 05:22:46;;;;;;;6.28;5.20;;;16.60;99.90;;;;;;7372176;19;20046;-57
2023/07/29 05:25:12;;;;;;;8.65;5.68;;;16.60;99.90;;;;;;7372140;19;20341;-63
2023/07/29 05:27:38;;;;;;;6.60;4.93;;;16.70;99.90;;;;;;7370487;19;20042;-64
2023/07/29 05:30:06;;;;;;;6.68;5.32;;;16.70;99.90;;;;;;7368875;19;20074;-64
2023/07/29 05:32:32;;;;;;;6.70;5.30;;;16.70;99.90;;;;;;7370241;19;20138;-58
2023/07/29 05:35:01;;;;;;;8.27;5.18;;;16.80;99.90;;;;;;7371811;19;20014;-57
2023/07/29 05:37:28;;;;;;;7.53;5.35;;;16.90;99.90;;;;;;7372444;19;20033;-65
2023/07/29 05:39:54;;;;;;;8.85;5.60;;;16.90;99.90;;;;;;7374828;19;20025;-65
2023/07/29 05:42:20;;;;;;;9.15;5.53;;;16.90;99.90;;;;;;7372671;19;20022;-65
2023/07/29 05:44:47;;;;;;;8.75;5.38;;;17.00;99.90;;;;;;7370486;19;20019;-66
2023/07/29 05:47:13;;;;;;;7.47;5.88;;;17.00;99.90;;;;;;7373846;19;20022;-66
2023/07/29 05:49:39;;;;;;;10.00;5.82;;;17.00;99.90;;;;;;7371860;19;20470;-64
2023/07/29 05:52:06;;;;;;;8.73;6.05;;;17.10;99.90;;;;;;7372094;19;20078;-64
2023/07/29 05:54:33;;;;;;;7.30;5.55;;;17.10;99.90;;;;;;7367088;19;21202;-65
2023/07/29 05:56:59;;;;;;;10.57;6.35;;;17.10;99.90;;;;;;7368832;19;20106;-59
2023/07/29 05:59:29;;;;;;;10.93;6.63;;;17.20;99.90;;;;;;7370655;19;20107;-58
2023/07/29 06:01:56;;;;;;;9.77;5.68;;;17.30;99.90;;;;;;7361179;19;20026;-58
2023/07/29 06:04:22;;;;;;;10.40;6.30;;;17.30;99.90;;;;;;7366503;19;20509;-57
2023/07/29 06:06:49;;;;;;;9.98;6.22;;;17.30;99.90;;;;;;7364839;19;20018;-58
2023/07/29 06:09:15;;;;;;;12.10;7.28;;;17.30;99.90;;;;;;7368874;19;20014;-58
2023/07/29 06:11:41;;;;;;;11.43;6.50;;;17.40;99.90;;;;;;7366321;19;20030;-57
2023/07/29 06:14:07;;;;;;;8.65;6.53;;;17.40;99.90;;;;;;7366325;19;20035;-58
2023/07/29 06:16:34;;;;;;;13.43;6.88;;;17.40;99.90;;;;;;7364130;19;20122;-57
2023/07/29 06:19:00;;;;;;;10.63;6.75;;;17.50;99.90;;;;;;7365595;19;20533;-57
2023/07/29 06:21:27;;;;;;;12.48;6.80;;;17.50;99.90;;;;;;7364223;19;20667;-57
2023/07/29 06:23:53;;;;;;;11.73;6.82;;;17.70;99.90;;;;;;7366043;19;20646;-62
2023/07/29 06:26:19;;;;;;;13.07;6.47;;;17.90;99.90;;;;;;7364591;19;20019;-58
2023/07/29 06:28:45;;;;;;;10.65;5.82;;;18.10;99.90;;;;;;7370181;19;20020;-57
2023/07/29 06:31:14;;;;;;;11.15;6.05;;;18.40;99.90;;;;;;7369196;19;20018;-58
2023/07/29 06:33:40;;;;;;;8.55;5.03;;;18.50;99.90;;;;;;7366908;19;20022;-57
2023/07/29 06:36:07;;;;;;;9.85;7.00;;;18.50;99.90;;;;;;7363831;19;20029;-58
2023/07/29 06:38:33;;;;;;;10.15;6.13;;;18.50;99.90;;;;;;7364570;19;20631;-58
2023/07/29 06:40:59;;;;;;;11.80;6.68;;;18.50;99.90;;;;;;7365186;19;20022;-57
2023/07/29 06:43:26;;;;;;;10.05;6.75;;;18.50;99.90;;;;;;7368378;19;20011;-58
2023/07/29 06:45:52;;;;;;;9.52;6.53;;;18.50;99.90;;;;;;7374327;19;20018;-59
2023/07/29 06:48:19;;;;;;;10.57;6.07;;;18.50;99.90;;;;;;7375854;19;20024;-66
2023/07/29 06:50:46;;;;;;;10.93;6.82;;;18.50;99.90;;;;;;7377782;19;20086;-57
2023/07/29 06:53:12;;;;;;;10.98;6.25;;;18.70;99.90;;;;;;7375116;19;20029;-64
2023/07/29 06:55:40;;;;;;;9.27;6.70;;;19.00;99.90;;;;;;7377986;19;20466;-65
2023/07/29 06:58:06;;;;;;;10.73;6.40;;;19.10;99.90;;;;;;7374080;19;20019;-58
2023/07/29 07:00:32;;;;;;;8.63;6.53;;;19.20;99.90;;;;;;7374663;19;20022;-58
2023/07/29 07:02:58;;;;;;;10.15;6.40;;;19.30;99.90;;;;;;7373984;19;20022;-58
2023/07/29 07:05:25;;;;;;;9.65;6.25;;;19.20;99.90;;;;;;7374966;19;20027;-58
2023/07/29 07:07:51;;;;;;;7.97;6.45;;;19.20;99.90;;;;;;7376308;19;20014;-58
2023/07/29 07:10:19;;;;;;;12.70;6.95;;;19.20;99.90;;;;;;7376151;19;20070;-58
2023/07/29 07:12:45;;;;;;;8.95;7.05;;;19.30;99.90;;;;;;7374668;19;20513;-65
2023/07/29 07:15:11;;;;;;;102.40;92.60;;;19.20;99.90;;;;;;7370743;19;20105;-57
2023/07/29 07:17:37;;;;;;;12.05;8.20;;;19.20;99.90;;;;;;7372168;19;20019;-57
2023/07/29 07:20:04;;;;;;;8.93;7.15;;;19.30;99.90;;;;;;7377528;19;20031;-58
2023/07/29 07:22:31;;;;;;;10.52;6.43;;;19.30;99.90;;;;;;7371671;19;20291;-57
2023/07/29 07:24:57;;;;;;;10.88;6.70;;;19.60;99.90;;;;;;7378067;19;20014;-57
2023/07/29 07:27:23;;;;;;;8.75;6.40;;;19.70;99.90;;;;;;7378590;19;20078;-57
2023/07/29 07:29:49;;;;;;;8.65;6.60;;;19.70;99.90;;;;;;7373842;19;20110;-66
2023/07/29 07:32:16;;;;;;;10.15;6.75;;;19.80;99.90;;;;;;7373900;19;20034;-66
2023/07/29 07:34:42;;;;;;;11.85;6.53;;;20.10;99.90;;;;;;7372266;19;20022;-57
2023/07/29 07:37:09;;;;;;;9.88;6.32;;;20.10;99.90;;;;;;7369646;19;20577;-66
2023/07/29 07:39:35;;;;;;;8.60;6.57;;;20.30;99.90;;;;;;7374097;19;20038;-65
2023/07/29 07:42:02;;;;;;;10.35;6.50;;;20.30;99.90;;;;;;7374634;19;20051;-65
2023/07/29 07:44:32;;;;;;;13.82;8.38;;;20.70;99.90;;;;;;7374885;19;20014;-63
2023/07/29 07:46:58;;;;;;;40.47;36.25;;;21.00;99.90;;;;;;7381455;19;20014;-65
2023/07/29 07:49:24;;;;;;;9.32;6.25;;;21.30;99.90;;;;;;7373411;19;20421;-66
2023/07/29 07:51:50;;;;;;;21.88;19.27;;;21.40;99.90;;;;;;7373857;19;20026;-66
2023/07/29 07:54:17;;;;;;;13.05;10.88;;;21.30;99.90;;;;;;7370013;19;20018;-66
2023/07/29 07:56:44;;;;;;;11.18;6.90;;;20.90;99.90;;;;;;7372702;19;20014;-62
2023/07/29 07:59:10;;;;;;;13.07;8.20;;;21.00;99.90;;;;;;7375193;19;20026;-66
2023/07/29 08:01:38;;;;;;;10.23;8.93;;;20.70;99.90;;;;;;7374968;19;20018;-67
2023/07/29 08:04:04;;;;;;;17.95;16.02;;;20.60;99.90;;;;;;7374143;19;20022;-66
2023/07/29 08:06:32;;;;;;;10.57;5.18;;;20.70;99.90;;;;;;7373008;19;20014;-66
2023/07/29 08:08:58;;;;;;;8.73;5.05;;;20.70;99.90;;;;;;7375071;19;20014;-66
2023/07/29 08:11:28;;;;;;;7.63;4.88;;;20.80;99.90;;;;;;7372755;19;20018;-66
2023/07/29 08:13:54;;;;;;;6.78;4.28;;;21.00;99.90;;;;;;7371522;19;20481;-66
2023/07/29 08:16:20;;;;;;;8.20;4.40;;;21.50;99.90;;;;;;7364158;19;20026;-66
2023/07/29 08:18:47;;;;;;;35.53;31.73;;;21.60;99.90;;;;;;7375092;19;20478;-68
2023/07/29 08:21:13;;;;;;;17.75;15.05;;;21.90;99.90;;;;;;7374985;19;20086;-69
2023/07/29 08:23:39;;;;;;;27.25;24.35;;;21.80;99.90;;;;;;7372236;19;20018;-66
2023/07/29 08:26:06;;;;;;;11.75;8.93;;;21.50;99.90;;;;;;7373045;19;20070;-64
2023/07/29 08:28:34;;;;;;;8.00;6.18;;;21.20;99.90;;;;;;7370763;19;20374;-66
2023/07/29 08:31:01;;;;;;;6.40;4.22;;;21.20;99.90;;;;;;7367819;19;20029;-57
2023/07/29 08:33:28;;;;;;;9.88;5.72;;;21.70;99.90;;;;;;7372672;19;20011;-58
2023/07/29 08:35:54;;;;;;;8.30;4.65;;;22.20;99.90;;;;;;7371183;19;20505;-57
2023/07/29 08:38:21;;;;;;;10.50;4.45;;;22.60;99.90;;;;;;7371203;19;20584;-58
2023/07/29 08:40:57;;;;;;;7.25;3.63;;;23.00;99.90;;;;;;7367923;19;20493;-65
2023/07/29 08:43:31;;;;;;;6.65;3.58;;;23.60;99.90;;;;;;7372577;19;20022;-65
2023/07/29 08:45:59;;;;;;;5.68;3.35;;;23.40;99.90;;;;;;7370415;19;20022;-68
2023/07/29 08:48:42;;;;;;;5.90;2.85;;;23.20;99.90;;;;;;7372939;19;20015;-68
2023/07/29 08:51:09;;;;;;;6.28;3.33;;;23.50;99.90;;;;;;7370387;19;20039;-67
2023/07/29 08:53:37;;;;;;;6.78;3.25;;;23.30;99.90;;;;;;7370424;19;20176;-68
2023/07/29 08:56:05;;;;;;;5.78;3.30;;;23.40;99.90;;;;;;7372753;19;20041;-69
2023/07/29 08:58:32;;;;;;;7.68;3.47;;;23.50;99.90;;;;;;7371865;19;20371;-67
2023/07/29 09:01:00;;;;;;;4.55;2.60;;;23.60;99.90;;;;;;7375720;19;20018;-59
2023/07/29 09:03:26;;;;;;;6.60;2.67;;;23.30;99.90;;;;;;7368628;19;20051;-59
2023/07/29 09:05:54;;;;;;;5.63;2.78;;;23.40;99.90;;;;;;7369520;19;20719;-59
2023/07/29 09:08:21;;;;;;;8.30;3.05;;;23.40;99.90;;;;;;7373316;19;20388;-59
2023/07/29 09:10:47;;;;;;;7.32;2.53;;;23.80;99.90;;;;;;7372640;19;20022;-62
2023/07/29 09:13:13;;;;;;;4.93;2.00;;;24.20;99.90;;;;;;7372749;19;20019;-60
2023/07/29 09:15:42;;;;;;;5.32;2.50;;;24.20;99.90;;;;;;7370313;19;20089;-68
2023/07/29 09:18:14;;;;;;;5.03;2.47;;;24.30;99.90;;;;;;7372647;19;20022;-60
2023/07/29 09:20:40;;;;;;;4.32;1.77;;;24.50;99.90;;;;;;7373846;19;20065;-60
2023/07/29 09:23:12;;;;;;;6.40;3.03;;;24.60;99.90;;;;;;7375591;19;20074;-59
2023/07/29 09:25:39;;;;;;;9.55;5.90;;;24.70;99.90;;;;;;7371794;19;20022;-58
2023/07/29 09:28:14;;;;;;;6.32;3.20;;;24.40;99.90;;;;;;7373027;19;20023;-58
2023/07/29 09:30:45;;;;;;;9.85;5.57;;;24.20;99.90;;;;;;7371535;19;20026;-59
2023/07/29 09:33:11;;;;;;;5.78;2.00;;;24.20;99.90;;;;;;7372561;19;21436;-67
2023/07/29 09:35:38;;;;;;;3.80;1.80;;;24.20;99.90;;;;;;7368095;19;20029;-66
2023/07/29 09:38:15;;;;;;;6.13;2.38;;;24.10;99.90;;;;;;7407489;19;20384;-58
2023/07/29 09:40:45;;;;;;;3.08;1.50;;;23.80;99.90;;;;;;7405447;19;20022;-69
2023/07/29 09:43:11;;;;;;;22.08;4.15;;;23.70;99.90;;;;;;7407714;19;20417;-67
2023/07/29 09:45:38;;;;;;;4.93;1.80;;;24.10;99.90;;;;;;7406040;19;20661;-71
2023/07/29 09:48:09;;;;;;;3.38;1.52;;;24.50;99.90;;;;;;7408214;19;20055;-69
2023/07/29 09:50:35;;;;;;;;;;;25.10;99.90;;;;;;7405041;19;20955;-69
2023/07/29 09:53:02;;;;;;;6.70;2.50;;;25.60;99.90;;;;;;7405400;19;19922;-61
2023/07/29 09:55:32;;;;;;;4.68;2.05;;;25.60;99.90;;;;;;7401341;19;20026;-62
2023/07/29 09:58:02;;;;;;;3.22;1.58;;;25.10;99.90;;;;;;7399093;19;20390;-61
2023/07/29 10:00:30;;;;;;;7.28;1.90;;;24.40;99.90;;;;;;7403376;19;20026;-62
2023/07/29 10:02:58;;;;;;;4.20;2.30;;;24.10;99.90;;;;;;7406053;19;20042;-69
2023/07/29 10:05:29;;;;;;;7.18;3.20;;;24.00;99.90;;;;;;7404442;19;20018;-71
2023/07/29 10:07:56;;;;;;;7.60;2.80;;;24.00;99.90;;;;;;7410566;19;20077;-71
2023/07/29 10:10:23;;;;;;;9.13;5.20;;;24.20;99.90;;;;;;7404489;19;20022;-62
2023/07/29 10:12:50;;;;;;;8.63;4.97;;;24.00;99.90;;;;;;7407725;19;20130;-61
2023/07/29 10:15:17;;;;;;;5.07;3.45;;;23.80;99.90;;;;;;7396604;19;20045;-62
2023/07/29 10:17:46;;;;;;;5.00;1.65;;;23.80;99.90;;;;;;7403905;19;20085;-66
2023/07/29 10:20:12;;;;;;;4.40;1.75;;;23.50;99.90;;;;;;7397808;19;20031;-58
2023/07/29 10:22:41;;;;;;;3.58;1.88;;;23.20;99.90;;;;;;7403536;19;20018;-69
2023/07/29 10:25:15;;;;;;;3.97;1.80;;;23.00;99.90;;;;;;7402809;19;20451;-69
2023/07/29 10:27:52;;;;;;;3.22;1.83;;;22.90;99.90;;;;;;7407394;19;20014;-69
2023/07/29 10:30:18;;;;;;;6.22;2.30;;;22.90;99.90;;;;;;7410069;19;20011;-58
2023/07/29 10:32:46;;;;;;;5.53;2.22;;;23.00;99.90;;;;;;7407726;19;20486;-58
2023/07/29 10:35:16;;;;;;;5.23;2.27;;;23.20;99.90;;;;;;7407522;19;20018;-58
2023/07/29 10:37:43;;;;;;;3.38;1.63;;;23.20;99.90;;;;;;7405886;19;20486;-69
2023/07/29 10:40:11;;;;;;;4.45;2.05;;;23.30;99.90;;;;;;7405182;19;20090;-70
2023/07/29 10:42:58;;;;;;;2.47;1.65;;;23.30;99.90;;;;;;7408648;19;20022;-69
2023/07/29 10:45:25;;;;;;;3.70;2.20;;;23.40;99.90;;;;;;7407437;19;20032;-69
2023/07/29 10:47:51;;;;;;;3.90;1.80;;;23.20;99.90;;;;;;7398672;19;20388;-69
2023/07/29 10:50:21;;;;;;;4.65;2.03;;;23.50;99.90;;;;;;7377227;19;20050;-69
2023/07/29 10:52:52;;;;;;;4.15;2.00;;;23.90;99.90;;;;;;7378090;19;20568;-58
2023/07/29 10:55:26;;;;;;;3.08;1.90;;;23.90;99.90;;;;;;7376961;19;20014;-58
2023/07/29 10:58:08;;;;;;;4.60;2.03;;;23.60;99.90;;;;;;7376706;19;20015;-58
2023/07/29 11:00:35;;;;;;;4.90;2.10;;;23.30;99.90;;;;;;7376240;19;20017;-58
2023/07/29 11:03:06;;;;;;;4.75;2.03;;;23.10;99.90;;;;;;7378414;19;20011;-58
2023/07/29 11:05:46;;;;;;;5.40;2.85;;;22.80;99.90;;;;;;7375618;19;20015;-58
2023/07/29 11:08:24;;;;;;;6.18;2.90;;;22.60;99.90;;;;;;7366209;19;20013;-69
2023/07/29 11:11:07;;;;;;;6.50;3.20;;;22.60;99.90;;;;;;7370329;19;20018;-69
2023/07/29 11:13:36;;;;;;;4.18;3.00;;;22.30;99.90;;;;;;7377396;19;20014;-68
2023/07/29 11:16:03;;;;;;;4.95;2.60;;;22.20;99.90;;;;;;7379126;19;20938;-68
2023/07/29 11:18:32;;;;;;;5.88;2.97;;;22.20;99.90;;;;;;7377881;19;20040;-68
2023/07/29 11:20:58;;;;;;;7.25;2.45;;;22.40;99.90;;;;;;7381103;19;20010;-69
2023/07/29 11:23:36;;;;;;;6.15;2.63;;;22.90;99.90;;;;;;7379390;19;20026;-69
2023/07/29 11:26:04;;;;;;;4.65;2.72;;;23.10;99.90;;;;;;7377741;19;20015;-69
2023/07/29 11:28:30;;;;;;;6.88;3.30;;;23.50;99.90;;;;;;7378768;19;20097;-69
2023/07/29 11:30:58;;;;;;;6.70;2.67;;;23.80;99.90;;;;;;7377827;19;20015;-69
2023/07/29 11:33:27;;;;;;;3.38;2.35;;;24.30;99.90;;;;;;7375072;19;20026;-69
2023/07/29 11:35:54;;;;;;;6.10;2.63;;;24.40;99.90;;;;;;7371771;19;20101;-68
2023/07/29 11:38:22;;;;;;;4.90;1.80;;;24.10;99.90;;;;;;7377929;19;20074;-68
2023/07/29 11:41:05;;;;;;;4.72;2.40;;;23.60;99.90;;;;;;7378069;19;20450;-58
2023/07/29 11:43:36;;;;;;;4.43;2.30;;;23.10;99.90;;;;;;7376796;19;20476;-68
2023/07/29 11:46:03;;;;;;;5.15;2.40;;;22.80;99.90;;;;;;7375020;19;20035;-58
2023/07/29 11:48:32;;;;;;;5.55;2.05;;;22.40;99.90;;;;;;7376076;19;20042;-58
2023/07/29 11:50:59;;;;;;;5.43;2.30;;;22.40;99.90;;;;;;7377601;19;20018;-68
2023/07/29 11:53:30;;;;;;;10.68;2.72;;;22.60;99.90;;;;;;7375865;19;20011;-69
2023/07/29 11:55:57;;;;;;;4.50;2.08;;;22.70;99.90;;;;;;7376604;19;20018;-69
2023/07/29 11:58:23;;;;;;;3.92;2.05;;;23.00;99.90;;;;;;7375685;19;20105;-68
2023/07/29 12:00:51;;;;;;;4.72;2.10;;;23.10;99.90;;;;;;7374770;19;20018;-68
2023/07/29 12:03:18;;;;;;;5.57;2.47;;;23.10;99.90;;;;;;7376220;19;20024;-57
2023/07/29 12:05:44;;;;;;;6.88;2.70;;;23.90;99.90;;;;;;7375260;19;20049;-58
2023/07/29 12:08:11;;;;;;;4.32;2.00;;;24.50;99.90;;;;;;7375609;19;20042;-70
2023/07/29 12:10:38;;;;;;;5.43;2.40;;;24.80;99.90;;;;;;7374754;19;20018;-58
2023/07/29 12:13:04;;;;;;;7.38;2.53;;;25.20;99.90;;;;;;7377282;19;20428;-69
2023/07/29 12:15:30;;;;;;;4.82;2.42;;;25.40;99.90;;;;;;7373627;19;20428;-59
2023/07/29 12:17:59;;;;;;;5.72;1.88;;;25.80;99.90;;;;;;7375644;19;20012;-58
2023/07/29 12:20:26;;;;;;;4.25;2.00;;;25.70;99.90;;;;;;7375916;19;20018;-58
2023/07/29 12:22:58;;;;;;;5.65;1.92;;;25.40;99.90;;;;;;7376019;19;20014;-59
2023/07/29 12:25:26;;;;;;;4.25;2.15;;;25.80;99.90;;;;;;7376788;19;20022;-58
2023/07/29 12:27:52;;;;;;;5.47;2.00;;;25.70;99.90;;;;;;7375461;19;20019;-58
2023/07/29 12:30:23;;;;;;;6.78;2.00;;;25.70;99.90;;;;;;7375583;19;20489;-58
2023/07/29 12:32:49;;;;;;;7.43;2.87;;;25.40;99.90;;;;;;7375706;19;20085;-69
2023/07/29 12:35:16;;;;;;;4.15;2.60;;;25.00;99.90;;;;;;7375094;19;20117;-69
2023/07/29 12:37:42;;;;;;;5.32;2.00;;;25.10;99.90;;;;;;7372073;19;20015;-69
2023/07/29 12:40:24;;;;;;;5.30;2.20;;;25.50;99.90;;;;;;7378053;19;20456;-58
2023/07/29 12:42:51;;;;;;;6.35;1.88;;;25.90;99.90;;;;;;7376522;19;20018;-59
2023/07/29 12:45:18;;;;;;;4.68;1.90;;;26.40;99.90;;;;;;7375676;19;20335;-59